sensor_id;sensor_type;location;lat;lon;timestamp;P1;durP1;ratioP1;P2;durP2;ratioP2
70946;SDS011;58605;48.700;8.760;2023-08-01T00:02:14;3.88;;;2.75;;
70946;SDS011;58605;48.700;8.760;2023-08-01T00:04:40;4.18;;;2.50;;
70946;SDS011;58605;48.700;8.760;2023-08-01T00:07:08;5.22;;;3.05;;
70946;SDS011;58605;48.700;8.760;2023-08-01T00:09:34;5.40;;;3.13;;
70946;SDS011;58605;48.700;8.760;2023-08-01T00:12:00;3.83;;;2.77;;
70946;SDS011;58605;48.700;8.760;2023-08-01T00:14:26;4.82;;;2.50;;
70946;SDS011;58605;48.700;8.760;2023-08-01T00:16:53;5.13;;;2.85;;
70946;SDS011;58605;48.700;8.760;2023-08-01T00:19:19;2.97;;;2.50;;
70946;SDS011;58605;48.700;8.760;2023-08-01T00:21:45;4.03;;;2.47;;
70946;SDS011;58605;48.700;8.760;2023-08-01T00:24:13;8.15;;;3.08;;
70946;SDS011;58605;48.700;8.760;2023-08-01T00:26:39;7.00;;;2.83;;
70946;SDS011;58605;48.700;8.760;2023-08-01T00:29:06;8.27;;;3.17;;
70946;SDS011;58605;48.700;8.760;2023-08-01T00:31:32;4.95;;;3.17;;
70946;SDS011;58605;48.700;8.760;2023-08-01T00:33:58;4.90;;;2.72;;
70946;SDS011;58605;48.700;8.760;2023-08-01T00:36:24;3.55;;;2.72;;
70946;SDS011;58605;48.700;8.760;2023-08-01T00:38:50;4.72;;;3.28;;
70946;SDS011;58605;48.700;8.760;2023-08-01T00:41:18;5.78;;;2.95;;
70946;SDS011;58605;48.700;8.760;2023-08-01T00:43:44;5.75;;;3.25;;
70946;SDS011;58605;48.700;8.760;2023-08-01T00:46:10;3.40;;;2.58;;
70946;SDS011;58605;48.700;8.760;2023-08-01T00:48:37;5.10;;;2.83;;
70946;SDS011;58605;48.700;8.760;2023-08-01T00:51:04;4.53;;;2.78;;
70946;SDS011;58605;48.700;8.760;2023-08-01T00:53:31;5.60;;;3.17;;
70946;SDS011;58605;48.700;8.760;2023-08-01T00:55:57;3.67;;;2.85;;
70946;SDS011;58605;48.700;8.760;2023-08-01T00:58:25;4.95;;;2.97;;
70946;SDS011;58605;48.700;8.760;2023-08-01T01:00:51;4.77;;;3.33;;
70946;SDS011;58605;48.700;8.760;2023-08-01T01:03:18;4.40;;;2.95;;
70946;SDS011;58605;48.700;8.760;2023-08-01T01:05:47;5.75;;;2.88;;
70946;SDS011;58605;48.700;8.760;2023-08-01T01:08:17;3.72;;;2.47;;
70946;SDS011;58605;48.700;8.760;2023-08-01T01:10:44;4.13;;;3.05;;
70946;SDS011;58605;48.700;8.760;2023-08-01T01:13:10;4.32;;;3.58;;
70946;SDS011;58605;48.700;8.760;2023-08-01T01:15:38;6.18;;;3.20;;
70946;SDS011;58605;48.700;8.760;2023-08-01T01:18:04;5.40;;;3.92;;
70946;SDS011;58605;48.700;8.760;2023-08-01T01:20:33;3.42;;;2.42;;
70946;SDS011;58605;48.700;8.760;2023-08-01T01:23:00;3.47;;;2.65;;
70946;SDS011;58605;48.700;8.760;2023-08-01T01:25:29;5.60;;;2.97;;
70946;SDS011;58605;48.700;8.760;2023-08-01T01:27:56;3.67;;;2.85;;
70946;SDS011;58605;48.700;8.760;2023-08-01T01:30:24;3.10;;;2.70;;
70946;SDS011;58605;48.700;8.760;2023-08-01T01:32:51;4.30;;;3.03;;
70946;SDS011;58605;48.700;8.760;2023-08-01T01:35:18;4.95;;;3.20;;
70946;SDS011;58605;48.700;8.760;2023-08-01T01:37:45;5.13;;;2.97;;
70946;SDS011;58605;48.700;8.760;2023-08-01T01:40:11;3.10;;;2.53;;
70946;SDS011;58605;48.700;8.760;2023-08-01T01:42:38;3.35;;;2.60;;
70946;SDS011;58605;48.700;8.760;2023-08-01T01:45:04;3.63;;;2.88;;
70946;SDS011;58605;48.700;8.760;2023-08-01T01:47:31;4.22;;;3.00;;
70946;SDS011;58605;48.700;8.760;2023-08-01T01:49:57;5.45;;;3.05;;
70946;SDS011;58605;48.700;8.760;2023-08-01T01:52:23;6.10;;;2.95;;
70946;SDS011;58605;48.700;8.760;2023-08-01T01:54:50;4.90;;;3.08;;
70946;SDS011;58605;48.700;8.760;2023-08-01T01:57:16;3.28;;;2.33;;
70946;SDS011;58605;48.700;8.760;2023-08-01T01:59:42;6.13;;;3.00;;
70946;SDS011;58605;48.700;8.760;2023-08-01T02:02:08;4.30;;;2.97;;
70946;SDS011;58605;48.700;8.760;2023-08-01T02:04:34;6.70;;;4.00;;
70946;SDS011;58605;48.700;8.760;2023-08-01T02:07:00;4.28;;;3.17;;
70946;SDS011;58605;48.700;8.760;2023-08-01T02:09:28;5.78;;;3.33;;
70946;SDS011;58605;48.700;8.760;2023-08-01T02:11:55;8.27;;;3.50;;
70946;SDS011;58605;48.700;8.760;2023-08-01T02:14:21;4.57;;;3.28;;
70946;SDS011;58605;48.700;8.760;2023-08-01T02:16:47;3.65;;;2.85;;
70946;SDS011;58605;48.700;8.760;2023-08-01T02:19:13;3.58;;;3.15;;
70946;SDS011;58605;48.700;8.760;2023-08-01T02:21:39;4.93;;;3.22;;
70946;SDS011;58605;48.700;8.760;2023-08-01T02:24:05;5.20;;;4.07;;
70946;SDS011;58605;48.700;8.760;2023-08-01T02:26:32;5.65;;;3.60;;
70946;SDS011;58605;48.700;8.760;2023-08-01T02:28:59;7.32;;;4.45;;
70946;SDS011;58605;48.700;8.760;2023-08-01T02:31:25;6.20;;;4.10;;
70946;SDS011;58605;48.700;8.760;2023-08-01T02:33:51;5.03;;;3.65;;
70946;SDS011;58605;48.700;8.760;2023-08-01T02:36:17;6.00;;;3.50;;
70946;SDS011;58605;48.700;8.760;2023-08-01T02:38:43;5.78;;;4.15;;
70946;SDS011;58605;48.700;8.760;2023-08-01T02:41:10;6.20;;;4.30;;
70946;SDS011;58605;48.700;8.760;2023-08-01T02:43:36;9.68;;;5.35;;
70946;SDS011;58605;48.700;8.760;2023-08-01T02:46:03;6.45;;;3.72;;
70946;SDS011;58605;48.700;8.760;2023-08-01T02:48:30;6.20;;;3.30;;
70946;SDS011;58605;48.700;8.760;2023-08-01T02:50:57;6.22;;;3.03;;
70946;SDS011;58605;48.700;8.760;2023-08-01T02:53:24;3.47;;;2.60;;
70946;SDS011;58605;48.700;8.760;2023-08-01T02:55:50;3.92;;;2.70;;
70946;SDS011;58605;48.700;8.760;2023-08-01T02:58:16;4.57;;;3.05;;
70946;SDS011;58605;48.700;8.760;2023-08-01T03:00:42;5.03;;;3.72;;
70946;SDS011;58605;48.700;8.760;2023-08-01T03:03:09;4.18;;;3.28;;
70946;SDS011;58605;48.700;8.760;2023-08-01T03:05:35;3.90;;;2.93;;
70946;SDS011;58605;48.700;8.760;2023-08-01T03:08:02;3.63;;;2.83;;
70946;SDS011;58605;48.700;8.760;2023-08-01T03:10:29;6.18;;;3.25;;
70946;SDS011;58605;48.700;8.760;2023-08-01T03:12:55;4.90;;;2.90;;
70946;SDS011;58605;48.700;8.760;2023-08-01T03:15:21;5.22;;;3.08;;
70946;SDS011;58605;48.700;8.760;2023-08-01T03:17:47;4.30;;;2.95;;
70946;SDS011;58605;48.700;8.760;2023-08-01T03:20:14;4.10;;;3.00;;
70946;SDS011;58605;48.700;8.760;2023-08-01T03:22:41;7.50;;;3.22;;
70946;SDS011;58605;48.700;8.760;2023-08-01T03:25:07;4.80;;;3.07;;
70946;SDS011;58605;48.700;8.760;2023-08-01T03:27:33;4.33;;;2.63;;
70946;SDS011;58605;48.700;8.760;2023-08-01T03:30:00;5.00;;;2.65;;
70946;SDS011;58605;48.700;8.760;2023-08-01T03:32:26;6.90;;;3.17;;
70946;SDS011;58605;48.700;8.760;2023-08-01T03:34:52;4.20;;;2.80;;
70946;SDS011;58605;48.700;8.760;2023-08-01T03:37:20;4.87;;;3.00;;
70946;SDS011;58605;48.700;8.760;2023-08-01T03:39:46;5.20;;;2.80;;
70946;SDS011;58605;48.700;8.760;2023-08-01T03:42:12;5.22;;;2.55;;
70946;SDS011;58605;48.700;8.760;2023-08-01T03:44:38;5.05;;;3.75;;
70946;SDS011;58605;48.700;8.760;2023-08-01T03:47:04;4.70;;;2.75;;
70946;SDS011;58605;48.700;8.760;2023-08-01T03:49:31;4.67;;;2.80;;
70946;SDS011;58605;48.700;8.760;2023-08-01T03:51:58;5.53;;;2.87;;
70946;SDS011;58605;48.700;8.760;2023-08-01T03:54:25;3.65;;;2.53;;
70946;SDS011;58605;48.700;8.760;2023-08-01T03:56:51;6.20;;;2.58;;
70946;SDS011;58605;48.700;8.760;2023-08-01T03:59:17;4.85;;;2.67;;
70946;SDS011;58605;48.700;8.760;2023-08-01T04:01:46;4.43;;;3.07;;
70946;SDS011;58605;48.700;8.760;2023-08-01T04:04:13;5.05;;;2.70;;
70946;SDS011;58605;48.700;8.760;2023-08-01T04:06:39;3.93;;;2.60;;
70946;SDS011;58605;48.700;8.760;2023-08-01T04:09:05;4.20;;;2.97;;
70946;SDS011;58605;48.700;8.760;2023-08-01T04:11:35;5.63;;;2.87;;
70946;SDS011;58605;48.700;8.760;2023-08-01T04:14:01;4.57;;;3.00;;
70946;SDS011;58605;48.700;8.760;2023-08-01T04:16:28;9.43;;;3.20;;
70946;SDS011;58605;48.700;8.760;2023-08-01T04:18:54;6.13;;;3.07;;
70946;SDS011;58605;48.700;8.760;2023-08-01T04:21:20;4.28;;;3.25;;
70946;SDS011;58605;48.700;8.760;2023-08-01T04:23:46;6.60;;;3.60;;
70946;SDS011;58605;48.700;8.760;2023-08-01T04:26:12;3.30;;;3.00;;
70946;SDS011;58605;48.700;8.760;2023-08-01T04:28:39;6.30;;;4.00;;
70946;SDS011;58605;48.700;8.760;2023-08-01T04:31:06;8.33;;;3.50;;
70946;SDS011;58605;48.700;8.760;2023-08-01T04:33:32;6.60;;;2.97;;
70946;SDS011;58605;48.700;8.760;2023-08-01T04:35:58;3.73;;;3.00;;
70946;SDS011;58605;48.700;8.760;2023-08-01T04:38:24;5.53;;;3.13;;
70946;SDS011;58605;48.700;8.760;2023-08-01T04:40:50;4.47;;;2.90;;
70946;SDS011;58605;48.700;8.760;2023-08-01T04:43:16;6.40;;;3.20;;
70946;SDS011;58605;48.700;8.760;2023-08-01T04:45:43;5.57;;;3.05;;
70946;SDS011;58605;48.700;8.760;2023-08-01T04:48:10;6.03;;;3.27;;
70946;SDS011;58605;48.700;8.760;2023-08-01T04:50:36;5.97;;;3.63;;
70946;SDS011;58605;48.700;8.760;2023-08-01T04:53:02;4.27;;;2.73;;
70946;SDS011;58605;48.700;8.760;2023-08-01T04:55:29;4.13;;;3.00;;
70946;SDS011;58605;48.700;8.760;2023-08-01T04:57:55;3.37;;;2.53;;
70946;SDS011;58605;48.700;8.760;2023-08-01T05:00:21;4.93;;;3.23;;
70946;SDS011;58605;48.700;8.760;2023-08-01T05:02:48;3.57;;;2.73;;
70946;SDS011;58605;48.700;8.760;2023-08-01T05:05:14;4.50;;;2.78;;
70946;SDS011;58605;48.700;8.760;2023-08-01T05:07:41;4.00;;;3.13;;
70946;SDS011;58605;48.700;8.760;2023-08-01T05:10:07;3.77;;;2.70;;
70946;SDS011;58605;48.700;8.760;2023-08-01T05:12:35;5.27;;;2.70;;
70946;SDS011;58605;48.700;8.760;2023-08-01T05:15:01;5.53;;;2.90;;
70946;SDS011;58605;48.700;8.760;2023-08-01T05:17:27;5.93;;;3.03;;
70946;SDS011;58605;48.700;8.760;2023-08-01T05:19:55;3.43;;;2.63;;
70946;SDS011;58605;48.700;8.760;2023-08-01T05:22:21;5.53;;;3.15;;
70946;SDS011;58605;48.700;8.760;2023-08-01T05:24:47;4.28;;;3.08;;
70946;SDS011;58605;48.700;8.760;2023-08-01T05:27:13;8.05;;;2.90;;
70946;SDS011;58605;48.700;8.760;2023-08-01T05:29:46;4.70;;;3.65;;
70946;SDS011;58605;48.700;8.760;2023-08-01T05:32:19;7.13;;;3.35;;
70946;SDS011;58605;48.700;8.760;2023-08-01T05:34:45;5.20;;;3.22;;
70946;SDS011;58605;48.700;8.760;2023-08-01T05:37:13;5.93;;;3.27;;
70946;SDS011;58605;48.700;8.760;2023-08-01T05:39:39;7.37;;;3.53;;
70946;SDS011;58605;48.700;8.760;2023-08-01T05:44:59;4.97;;;3.10;;
70946;SDS011;58605;48.700;8.760;2023-08-01T05:47:26;4.27;;;3.13;;
70946;SDS011;58605;48.700;8.760;2023-08-01T05:49:52;4.87;;;2.73;;
70946;SDS011;58605;48.700;8.760;2023-08-01T05:52:19;4.63;;;3.00;;
70946;SDS011;58605;48.700;8.760;2023-08-01T05:54:45;6.80;;;3.07;;
70946;SDS011;58605;48.700;8.760;2023-08-01T05:57:11;5.10;;;3.33;;
70946;SDS011;58605;48.700;8.760;2023-08-01T05:59:37;5.37;;;3.20;;
70946;SDS011;58605;48.700;8.760;2023-08-01T06:02:04;6.90;;;3.57;;
70946;SDS011;58605;48.700;8.760;2023-08-01T06:04:30;3.63;;;2.67;;
70946;SDS011;58605;48.700;8.760;2023-08-01T06:06:57;8.07;;;3.83;;
70946;SDS011;58605;48.700;8.760;2023-08-01T06:09:25;8.23;;;3.77;;
70946;SDS011;58605;48.700;8.760;2023-08-01T06:11:51;9.60;;;4.27;;
70946;SDS011;58605;48.700;8.760;2023-08-01T06:14:17;5.07;;;3.40;;
70946;SDS011;58605;48.700;8.760;2023-08-01T06:16:43;5.97;;;3.90;;
70946;SDS011;58605;48.700;8.760;2023-08-01T06:19:10;6.13;;;4.20;;
70946;SDS011;58605;48.700;8.760;2023-08-01T06:21:36;5.67;;;3.87;;
70946;SDS011;58605;48.700;8.760;2023-08-01T06:24:02;5.25;;;4.03;;
70946;SDS011;58605;48.700;8.760;2023-08-01T06:26:30;7.87;;;4.70;;
70946;SDS011;58605;48.700;8.760;2023-08-01T06:28:56;8.33;;;4.90;;
70946;SDS011;58605;48.700;8.760;2023-08-01T06:31:22;5.83;;;4.33;;
70946;SDS011;58605;48.700;8.760;2023-08-01T06:33:48;7.23;;;4.00;;
70946;SDS011;58605;48.700;8.760;2023-08-01T06:36:14;5.70;;;3.70;;
70946;SDS011;58605;48.700;8.760;2023-08-01T06:38:42;6.23;;;4.03;;
70946;SDS011;58605;48.700;8.760;2023-08-01T06:41:08;6.77;;;4.20;;
70946;SDS011;58605;48.700;8.760;2023-08-01T06:43:36;7.60;;;3.93;;
70946;SDS011;58605;48.700;8.760;2023-08-01T06:46:03;9.13;;;4.17;;
70946;SDS011;58605;48.700;8.760;2023-08-01T06:48:30;7.60;;;4.47;;
70946;SDS011;58605;48.700;8.760;2023-08-01T06:50:56;6.13;;;4.40;;
70946;SDS011;58605;48.700;8.760;2023-08-01T06:53:22;7.67;;;4.47;;
70946;SDS011;58605;48.700;8.760;2023-08-01T06:55:48;6.43;;;5.03;;
70946;SDS011;58605;48.700;8.760;2023-08-01T06:58:14;11.20;;;4.70;;
70946;SDS011;58605;48.700;8.760;2023-08-01T07:00:42;6.10;;;4.37;;
70946;SDS011;58605;48.700;8.760;2023-08-01T07:03:09;5.97;;;4.27;;
70946;SDS011;58605;48.700;8.760;2023-08-01T07:05:35;6.63;;;4.50;;
70946;SDS011;58605;48.700;8.760;2023-08-01T07:08:02;7.03;;;4.47;;
70946;SDS011;58605;48.700;8.760;2023-08-01T07:10:29;6.57;;;3.90;;
70946;SDS011;58605;48.700;8.760;2023-08-01T07:12:55;8.47;;;5.73;;
70946;SDS011;58605;48.700;8.760;2023-08-01T07:15:21;7.07;;;4.23;;
70946;SDS011;58605;48.700;8.760;2023-08-01T07:17:49;7.10;;;4.53;;
70946;SDS011;58605;48.700;8.760;2023-08-01T07:20:15;5.50;;;4.00;;
70946;SDS011;58605;48.700;8.760;2023-08-01T07:22:41;4.43;;;3.80;;
70946;SDS011;58605;48.700;8.760;2023-08-01T07:25:08;7.23;;;4.60;;
70946;SDS011;58605;48.700;8.760;2023-08-01T07:27:34;7.57;;;4.23;;
70946;SDS011;58605;48.700;8.760;2023-08-01T07:30:03;5.67;;;3.57;;
70946;SDS011;58605;48.700;8.760;2023-08-01T07:32:29;5.60;;;3.50;;
70946;SDS011;58605;48.700;8.760;2023-08-01T07:34:57;7.67;;;3.53;;
70946;SDS011;58605;48.700;8.760;2023-08-01T07:37:23;5.90;;;3.13;;
70946;SDS011;58605;48.700;8.760;2023-08-01T07:39:49;5.73;;;3.50;;
70946;SDS011;58605;48.700;8.760;2023-08-01T07:42:15;8.10;;;4.33;;
70946;SDS011;58605;48.700;8.760;2023-08-01T07:44:41;4.93;;;3.33;;
70946;SDS011;58605;48.700;8.760;2023-08-01T07:47:07;4.97;;;3.37;;
70946;SDS011;58605;48.700;8.760;2023-08-01T07:49:33;5.33;;;3.80;;
70946;SDS011;58605;48.700;8.760;2023-08-01T07:52:01;5.07;;;3.03;;
70946;SDS011;58605;48.700;8.760;2023-08-01T07:54:28;4.10;;;2.53;;
70946;SDS011;58605;48.700;8.760;2023-08-01T07:56:54;4.73;;;3.00;;
70946;SDS011;58605;48.700;8.760;2023-08-01T07:59:20;2.90;;;2.33;;
70946;SDS011;58605;48.700;8.760;2023-08-01T08:01:46;5.87;;;2.83;;
70946;SDS011;58605;48.700;8.760;2023-08-01T08:04:13;4.30;;;3.03;;
70946;SDS011;58605;48.700;8.760;2023-08-01T08:06:39;4.63;;;2.83;;
70946;SDS011;58605;48.700;8.760;2023-08-01T08:09:07;3.47;;;2.10;;
70946;SDS011;58605;48.700;8.760;2023-08-01T08:11:33;4.40;;;2.40;;
70946;SDS011;58605;48.700;8.760;2023-08-01T08:13:59;3.77;;;2.40;;
70946;SDS011;58605;48.700;8.760;2023-08-01T08:16:25;3.93;;;2.53;;
70946;SDS011;58605;48.700;8.760;2023-08-01T08:18:51;4.33;;;2.60;;
70946;SDS011;58605;48.700;8.760;2023-08-01T08:21:17;3.47;;;2.03;;
70946;SDS011;58605;48.700;8.760;2023-08-01T08:23:43;2.93;;;2.27;;
70946;SDS011;58605;48.700;8.760;2023-08-01T08:26:11;3.60;;;2.40;;
70946;SDS011;58605;48.700;8.760;2023-08-01T08:28:37;3.27;;;2.10;;
70946;SDS011;58605;48.700;8.760;2023-08-01T08:31:09;3.37;;;2.37;;
70946;SDS011;58605;48.700;8.760;2023-08-01T08:33:35;2.50;;;2.00;;
70946;SDS011;58605;48.700;8.760;2023-08-01T08:36:01;4.03;;;1.83;;
70946;SDS011;58605;48.700;8.760;2023-08-01T08:38:27;4.20;;;1.98;;
70946;SDS011;58605;48.700;8.760;2023-08-01T08:40:56;1.97;;;1.77;;
70946;SDS011;58605;48.700;8.760;2023-08-01T08:43:34;1.80;;;1.37;;
70946;SDS011;58605;48.700;8.760;2023-08-01T08:46:29;3.20;;;1.57;;
70946;SDS011;58605;48.700;8.760;2023-08-01T08:49:04;2.20;;;1.63;;
70946;SDS011;58605;48.700;8.760;2023-08-01T08:51:31;2.43;;;1.50;;
70946;SDS011;58605;48.700;8.760;2023-08-01T08:53:57;2.47;;;1.58;;
70946;SDS011;58605;48.700;8.760;2023-08-01T08:56:24;1.80;;;1.60;;
70946;SDS011;58605;48.700;8.760;2023-08-01T08:58:52;2.67;;;1.50;;
70946;SDS011;58605;48.700;8.760;2023-08-01T09:01:19;1.53;;;1.30;;
70946;SDS011;58605;48.700;8.760;2023-08-01T09:03:45;3.23;;;1.40;;
70946;SDS011;58605;48.700;8.760;2023-08-01T09:06:12;1.58;;;1.20;;
70946;SDS011;58605;48.700;8.760;2023-08-01T09:08:43;1.20;;;1.07;;
70946;SDS011;58605;48.700;8.760;2023-08-01T09:11:17;2.33;;;1.30;;
70946;SDS011;58605;48.700;8.760;2023-08-01T09:13:43;2.87;;;1.40;;
70946;SDS011;58605;48.700;8.760;2023-08-01T09:16:10;1.60;;;1.50;;
70946;SDS011;58605;48.700;8.760;2023-08-01T09:18:46;1.55;;;0.98;;
70946;SDS011;58605;48.700;8.760;2023-08-01T09:21:13;1.30;;;1.10;;
70946;SDS011;58605;48.700;8.760;2023-08-01T09:23:39;0.80;;;0.80;;
70946;SDS011;58605;48.700;8.760;2023-08-01T09:26:11;1.20;;;1.00;;
70946;SDS011;58605;48.700;8.760;2023-08-01T09:28:38;0.80;;;0.80;;
70946;SDS011;58605;48.700;8.760;2023-08-01T09:31:04;1.57;;;1.20;;
70946;SDS011;58605;48.700;8.760;2023-08-01T09:33:38;1.63;;;0.80;;
70946;SDS011;58605;48.700;8.760;2023-08-01T09:36:06;2.20;;;1.10;;
70946;SDS011;58605;48.700;8.760;2023-08-01T09:38:33;1.60;;;0.93;;
70946;SDS011;58605;48.700;8.760;2023-08-01T09:41:01;0.70;;;0.70;;
70946;SDS011;58605;48.700;8.760;2023-08-01T09:43:32;1.17;;;0.87;;
70946;SDS011;58605;48.700;8.760;2023-08-01T09:46:07;1.77;;;0.80;;
70946;SDS011;58605;48.700;8.760;2023-08-01T09:48:33;0.50;;;0.50;;
70946;SDS011;58605;48.700;8.760;2023-08-01T09:51:07;4.03;;;0.80;;
70946;SDS011;58605;48.700;8.760;2023-08-01T09:53:35;1.13;;;0.70;;
70946;SDS011;58605;48.700;8.760;2023-08-01T09:56:12;0.50;;;0.50;;
70946;SDS011;58605;48.700;8.760;2023-08-01T09:58:42;0.50;;;0.50;;
70946;SDS011;58605;48.700;8.760;2023-08-01T10:01:10;0.63;;;0.63;;
70946;SDS011;58605;48.700;8.760;2023-08-01T10:03:37;0.63;;;0.60;;
70946;SDS011;58605;48.700;8.760;2023-08-01T10:06:08;0.63;;;0.63;;
70946;SDS011;58605;48.700;8.760;2023-08-01T10:08:36;0.70;;;0.70;;
70946;SDS011;58605;48.700;8.760;2023-08-01T10:11:04;0.70;;;0.70;;
70946;SDS011;58605;48.700;8.760;2023-08-01T10:13:30;1.70;;;1.03;;
70946;SDS011;58605;48.700;8.760;2023-08-01T10:15:57;1.05;;;1.00;;
70946;SDS011;58605;48.700;8.760;2023-08-01T10:18:24;1.67;;;0.60;;
70946;SDS011;58605;48.700;8.760;2023-08-01T10:20:51;1.08;;;0.90;;
70946;SDS011;58605;48.700;8.760;2023-08-01T10:23:19;0.77;;;0.77;;
70946;SDS011;58605;48.700;8.760;2023-08-01T10:25:45;1.00;;;0.70;;
70946;SDS011;58605;48.700;8.760;2023-08-01T10:28:12;0.57;;;0.50;;
70946;SDS011;58605;48.700;8.760;2023-08-01T10:30:38;2.25;;;0.80;;
70946;SDS011;58605;48.700;8.760;2023-08-01T10:33:04;0.77;;;0.70;;
70946;SDS011;58605;48.700;8.760;2023-08-01T10:35:34;0.93;;;0.70;;
70946;SDS011;58605;48.700;8.760;2023-08-01T10:38:04;1.13;;;0.90;;
70946;SDS011;58605;48.700;8.760;2023-08-01T10:40:36;0.93;;;0.90;;
70946;SDS011;58605;48.700;8.760;2023-08-01T10:43:03;1.35;;;0.93;;
70946;SDS011;58605;48.700;8.760;2023-08-01T10:45:30;1.53;;;1.10;;
70946;SDS011;58605;48.700;8.760;2023-08-01T10:48:05;1.10;;;1.00;;
70946;SDS011;58605;48.700;8.760;2023-08-01T10:50:33;1.03;;;0.90;;
70946;SDS011;58605;48.700;8.760;2023-08-01T10:53:04;1.50;;;0.83;;
70946;SDS011;58605;48.700;8.760;2023-08-01T10:55:45;1.20;;;1.10;;
70946;SDS011;58605;48.700;8.760;2023-08-01T10:58:12;1.30;;;1.20;;
70946;SDS011;58605;48.700;8.760;2023-08-01T11:00:38;1.10;;;1.00;;
70946;SDS011;58605;48.700;8.760;2023-08-01T11:03:04;1.93;;;0.90;;
70946;SDS011;58605;48.700;8.760;2023-08-01T11:05:31;1.10;;;1.00;;
70946;SDS011;58605;48.700;8.760;2023-08-01T11:07:57;1.33;;;1.23;;
70946;SDS011;58605;48.700;8.760;2023-08-01T11:10:25;1.67;;;1.20;;
70946;SDS011;58605;48.700;8.760;2023-08-01T11:12:53;1.87;;;1.47;;
70946;SDS011;58605;48.700;8.760;2023-08-01T11:15:20;1.17;;;0.90;;
70946;SDS011;58605;48.700;8.760;2023-08-01T11:17:46;2.08;;;1.30;;
70946;SDS011;58605;48.700;8.760;2023-08-01T11:20:15;2.00;;;1.40;;
70946;SDS011;58605;48.700;8.760;2023-08-01T11:22:49;1.43;;;1.20;;
70946;SDS011;58605;48.700;8.760;2023-08-01T11:25:16;1.23;;;1.13;;
70946;SDS011;58605;48.700;8.760;2023-08-01T11:27:42;1.70;;;1.60;;
70946;SDS011;58605;48.700;8.760;2023-08-01T11:30:11;2.73;;;1.40;;
70946;SDS011;58605;48.700;8.760;2023-08-01T11:32:37;1.37;;;1.07;;
70946;SDS011;58605;48.700;8.760;2023-08-01T11:35:04;1.90;;;1.30;;
70946;SDS011;58605;48.700;8.760;2023-08-01T11:37:31;1.70;;;1.50;;
70946;SDS011;58605;48.700;8.760;2023-08-01T11:39:58;1.88;;;1.27;;
70946;SDS011;58605;48.700;8.760;2023-08-01T11:42:25;1.65;;;1.27;;
70946;SDS011;58605;48.700;8.760;2023-08-01T11:45:06;1.70;;;1.60;;
70946;SDS011;58605;48.700;8.760;2023-08-01T11:47:35;2.20;;;1.30;;
70946;SDS011;58605;48.700;8.760;2023-08-01T11:50:01;2.42;;;1.50;;
70946;SDS011;58605;48.700;8.760;2023-08-01T11:52:28;3.45;;;1.50;;
70946;SDS011;58605;48.700;8.760;2023-08-01T11:54:54;2.63;;;1.40;;
70946;SDS011;58605;48.700;8.760;2023-08-01T11:57:20;3.55;;;1.70;;
70946;SDS011;58605;48.700;8.760;2023-08-01T11:59:47;2.90;;;1.63;;
70946;SDS011;58605;48.700;8.760;2023-08-01T12:02:20;1.27;;;1.17;;
70946;SDS011;58605;48.700;8.760;2023-08-01T12:04:49;4.32;;;1.90;;
70946;SDS011;58605;48.700;8.760;2023-08-01T12:07:15;2.22;;;1.42;;
70946;SDS011;58605;48.700;8.760;2023-08-01T12:09:42;3.00;;;1.70;;
70946;SDS011;58605;48.700;8.760;2023-08-01T12:12:08;3.43;;;1.60;;
70946;SDS011;58605;48.700;8.760;2023-08-01T12:14:38;3.20;;;1.48;;
70946;SDS011;58605;48.700;8.760;2023-08-01T12:17:05;2.88;;;1.35;;
70946;SDS011;58605;48.700;8.760;2023-08-01T12:19:31;1.70;;;1.47;;
70946;SDS011;58605;48.700;8.760;2023-08-01T12:22:00;3.40;;;1.50;;
70946;SDS011;58605;48.700;8.760;2023-08-01T12:24:26;1.67;;;1.30;;
70946;SDS011;58605;48.700;8.760;2023-08-01T12:26:52;2.92;;;1.35;;
70946;SDS011;58605;48.700;8.760;2023-08-01T12:29:19;1.70;;;1.60;;
70946;SDS011;58605;48.700;8.760;2023-08-01T12:31:45;3.07;;;1.33;;
70946;SDS011;58605;48.700;8.760;2023-08-01T12:34:11;1.50;;;1.40;;
70946;SDS011;58605;48.700;8.760;2023-08-01T12:36:37;4.03;;;1.70;;
70946;SDS011;58605;48.700;8.760;2023-08-01T12:39:05;2.17;;;1.38;;
70946;SDS011;58605;48.700;8.760;2023-08-01T12:41:36;3.53;;;1.73;;
70946;SDS011;58605;48.700;8.760;2023-08-01T12:44:02;5.60;;;1.55;;
70946;SDS011;58605;48.700;8.760;2023-08-01T12:46:29;1.97;;;1.77;;
70946;SDS011;58605;48.700;8.760;2023-08-01T12:48:55;1.57;;;1.43;;
70946;SDS011;58605;48.700;8.760;2023-08-01T12:51:21;2.70;;;1.70;;
70946;SDS011;58605;48.700;8.760;2023-08-01T12:53:47;1.40;;;1.30;;
70946;SDS011;58605;48.700;8.760;2023-08-01T12:56:14;2.15;;;1.80;;
70946;SDS011;58605;48.700;8.760;2023-08-01T12:58:40;1.87;;;1.40;;
70946;SDS011;58605;48.700;8.760;2023-08-01T13:01:07;2.37;;;1.60;;
70946;SDS011;58605;48.700;8.760;2023-08-01T13:03:33;2.17;;;1.60;;
70946;SDS011;58605;48.700;8.760;2023-08-01T13:05:59;1.70;;;1.42;;
70946;SDS011;58605;48.700;8.760;2023-08-01T13:08:25;1.92;;;1.48;;
70946;SDS011;58605;48.700;8.760;2023-08-01T13:10:51;1.85;;;1.50;;
70946;SDS011;58605;48.700;8.760;2023-08-01T13:13:19;3.40;;;1.67;;
70946;SDS011;58605;48.700;8.760;2023-08-01T13:15:45;2.63;;;1.90;;
70946;SDS011;58605;48.700;8.760;2023-08-01T13:18:11;3.10;;;1.67;;
70946;SDS011;58605;48.700;8.760;2023-08-01T13:20:38;3.20;;;1.73;;
70946;SDS011;58605;48.700;8.760;2023-08-01T13:23:04;2.00;;;1.80;;
70946;SDS011;58605;48.700;8.760;2023-08-01T13:25:30;2.58;;;1.75;;
70946;SDS011;58605;48.700;8.760;2023-08-01T13:27:56;2.53;;;1.60;;
70946;SDS011;58605;48.700;8.760;2023-08-01T13:30:24;3.15;;;1.58;;
70946;SDS011;58605;48.700;8.760;2023-08-01T13:32:50;2.20;;;1.70;;
70946;SDS011;58605;48.700;8.760;2023-08-01T13:35:16;2.43;;;1.80;;
70946;SDS011;58605;48.700;8.760;2023-08-01T13:37:44;1.70;;;1.55;;
70946;SDS011;58605;48.700;8.760;2023-08-01T13:40:10;2.72;;;2.03;;
70946;SDS011;58605;48.700;8.760;2023-08-01T13:42:39;4.55;;;1.63;;
70946;SDS011;58605;48.700;8.760;2023-08-01T13:45:05;3.22;;;1.77;;
70946;SDS011;58605;48.700;8.760;2023-08-01T13:47:33;3.03;;;1.73;;
70946;SDS011;58605;48.700;8.760;2023-08-01T13:49:59;2.38;;;1.75;;
70946;SDS011;58605;48.700;8.760;2023-08-01T13:52:26;2.92;;;2.10;;
70946;SDS011;58605;48.700;8.760;2023-08-01T13:54:52;4.50;;;1.85;;
70946;SDS011;58605;48.700;8.760;2023-08-01T13:57:18;1.90;;;1.35;;
70946;SDS011;58605;48.700;8.760;2023-08-01T13:59:44;1.83;;;1.40;;
70946;SDS011;58605;48.700;8.760;2023-08-01T14:02:10;1.70;;;1.60;;
70946;SDS011;58605;48.700;8.760;2023-08-01T14:04:38;2.92;;;1.90;;
70946;SDS011;58605;48.700;8.760;2023-08-01T14:07:04;3.40;;;1.90;;
70946;SDS011;58605;48.700;8.760;2023-08-01T14:09:30;1.60;;;1.50;;
70946;SDS011;58605;48.700;8.760;2023-08-01T14:11:57;2.88;;;1.67;;
70946;SDS011;58605;48.700;8.760;2023-08-01T14:14:23;1.70;;;1.58;;
70946;SDS011;58605;48.700;8.760;2023-08-01T14:16:50;2.47;;;1.70;;
70946;SDS011;58605;48.700;8.760;2023-08-01T14:19:16;1.92;;;1.45;;
70946;SDS011;58605;48.700;8.760;2023-08-01T14:21:43;3.25;;;1.67;;
70946;SDS011;58605;48.700;8.760;2023-08-01T14:24:09;2.20;;;1.63;;
70946;SDS011;58605;48.700;8.760;2023-08-01T14:26:35;2.30;;;1.90;;
70946;SDS011;58605;48.700;8.760;2023-08-01T14:29:01;3.90;;;1.75;;
70946;SDS011;58605;48.700;8.760;2023-08-01T14:31:27;2.40;;;1.90;;
70946;SDS011;58605;48.700;8.760;2023-08-01T14:33:53;2.23;;;1.53;;
70946;SDS011;58605;48.700;8.760;2023-08-01T14:36:20;2.70;;;1.53;;
70946;SDS011;58605;48.700;8.760;2023-08-01T14:38:47;2.25;;;1.60;;
70946;SDS011;58605;48.700;8.760;2023-08-01T14:41:19;3.38;;;1.40;;
70946;SDS011;58605;48.700;8.760;2023-08-01T14:43:45;2.17;;;1.25;;
70946;SDS011;58605;48.700;8.760;2023-08-01T14:46:11;3.23;;;1.70;;
70946;SDS011;58605;48.700;8.760;2023-08-01T14:48:37;2.20;;;1.50;;
70946;SDS011;58605;48.700;8.760;2023-08-01T14:51:05;1.63;;;1.30;;